Elvira, Illinois
Current Conditions -  °F | °C
As of 1:50 PM on Sunday 23 Nov 2014 (Local Time) from KMWA Reporting Station
Light Rain Light Rain  
Wind Chill: 54°   Ceiling: 9000
Heat Index: 54°   Visibility: 5mi
Dew Point: 52°   Wind: 14mph
Humidity: 94%   Direction: 130°SE
Pressure: 29.46"   Gusts: NA
Location:  37.4664°N, 88.9884°W
Report Text: KMWA 231950Z 13012KT 5SM -RA SCT007 SCT037 OVC090 12/11 A2946
Loading
Personal Weather Stations






























Interactive Weather Map New forecast layout! Learn more

10-Day Weather Forecast

Advertisements
Track Severe Weather on mobile